createdAt,value
2022-09-07T00:00:31.912Z,8.31
2022-09-07T00:03:20.763Z,8.25
2022-09-07T00:06:12.331Z,8.13
2022-09-07T00:09:02.153Z,8.06
2022-09-07T00:11:50.261Z,7.94
2022-09-07T00:14:38.338Z,8.25
2022-09-07T00:17:26.055Z,8.19
2022-09-07T00:20:13.875Z,8.19
2022-09-07T00:23:01.824Z,8.06
2022-09-07T00:25:53.885Z,8.19
2022-09-07T00:28:43.290Z,8.13
2022-09-07T00:31:31.790Z,8.06
2022-09-07T00:34:19.387Z,8.19
2022-09-07T00:37:07.488Z,8.19
2022-09-07T00:39:55.627Z,8.13
2022-09-07T00:42:43.572Z,8.06
2022-09-07T00:45:31.780Z,7.88
2022-09-07T00:48:21.030Z,7.75
2022-09-07T00:51:18.946Z,7.63
2022-09-07T00:54:17.467Z,7.50
2022-09-07T00:57:06.556Z,7.38
2022-09-07T00:59:57.772Z,7.25
2022-09-07T01:02:49.582Z,7.19
2022-09-07T01:06:07.637Z,7.13
2022-09-07T01:09:02.389Z,7.06
2022-09-07T01:11:52.664Z,7.00
2022-09-07T01:14:45.479Z,6.94
2022-09-07T01:18:17.684Z,6.88
2022-09-07T01:21:26.215Z,6.81
2022-09-07T01:24:58.559Z,6.75
2022-09-07T01:28:08.117Z,6.75
2022-09-07T01:31:02.182Z,6.75
2022-09-07T01:34:23.982Z,6.69
2022-09-07T01:37:37.155Z,6.63
2022-09-07T01:40:54.877Z,6.56
2022-09-07T01:44:04.147Z,6.50
2022-09-07T01:47:34.863Z,6.50
2022-09-07T01:50:53.152Z,6.44
2022-09-07T01:53:50.604Z,6.38
2022-09-07T01:56:44.869Z,6.38
2022-09-07T01:59:43.379Z,6.31
2022-09-07T02:03:05.275Z,6.25
2022-09-07T02:06:10.818Z,6.25
2022-09-07T02:09:13.157Z,6.25
2022-09-07T02:12:07.143Z,6.25
2022-09-07T02:15:02.858Z,6.25
2022-09-07T02:17:58.694Z,6.19
2022-09-07T02:20:51.986Z,6.13
2022-09-07T02:23:55.263Z,6.13
2022-09-07T02:26:48.475Z,6.06
2022-09-07T02:29:36.624Z,6.06
2022-09-07T02:32:24.771Z,6.06
2022-09-07T02:35:13.482Z,6.00
2022-09-07T02:38:04.620Z,6.00
2022-09-07T02:40:55.411Z,6.00
2022-09-07T02:43:43.352Z,6.00
2022-09-07T02:46:50.478Z,6.00
2022-09-07T02:50:18.893Z,5.94
2022-09-07T02:53:51.765Z,5.94
2022-09-07T02:57:11.262Z,5.88
2022-09-07T03:00:26.056Z,5.81
2022-09-07T03:03:41.402Z,5.81
2022-09-07T03:06:38.590Z,5.81
2022-09-07T03:09:33.001Z,5.81
2022-09-07T03:12:23.413Z,5.75
2022-09-07T03:15:15.278Z,5.75
2022-09-07T03:18:03.542Z,5.75
2022-09-07T03:20:51.848Z,5.75
2022-09-07T03:23:40.080Z,5.75
2022-09-07T03:26:28.505Z,5.75
2022-09-07T03:29:16.661Z,5.69
2022-09-07T03:32:04.703Z,5.69
2022-09-07T03:34:52.737Z,5.63
2022-09-07T03:37:40.539Z,5.63
2022-09-07T03:40:28.492Z,5.56
2022-09-07T03:43:17.990Z,5.56
2022-09-07T03:46:07.845Z,5.56
2022-09-07T03:48:56.053Z,5.56
2022-09-07T03:51:43.969Z,5.56
2022-09-07T03:54:33.106Z,5.56
2022-09-07T03:57:22.646Z,5.56
2022-09-07T04:00:12.155Z,5.56
2022-09-07T04:03:03.179Z,5.56
2022-09-07T04:05:51.471Z,5.56
2022-09-07T04:08:40.883Z,5.56
2022-09-07T04:11:29.003Z,5.63
2022-09-07T04:14:18.056Z,5.63
2022-09-07T04:17:06.158Z,5.69
2022-09-07T04:19:54.747Z,5.69
2022-09-07T04:22:43.464Z,5.75
2022-09-07T04:25:31.551Z,5.81
2022-09-07T04:28:21.730Z,5.88
2022-09-07T04:31:09.626Z,5.94
2022-09-07T04:33:57.909Z,6.00
2022-09-07T04:36:45.700Z,6.13
2022-09-07T04:39:34.007Z,6.19
2022-09-07T04:42:22.155Z,6.31
2022-09-07T04:45:10.323Z,6.44
2022-09-07T04:47:58.531Z,6.63
2022-09-07T04:50:46.618Z,6.75
2022-09-07T04:53:37.143Z,6.94
2022-09-07T04:56:26.030Z,7.13
2022-09-07T04:59:14.239Z,7.25
2022-09-07T05:02:02.110Z,7.44
2022-09-07T05:04:50.022Z,7.56
2022-09-07T05:07:38.324Z,7.75
2022-09-07T05:10:26.230Z,7.88
2022-09-07T05:13:14.249Z,8.06
2022-09-07T05:16:13.175Z,8.19
2022-09-07T05:19:04.190Z,8.31
2022-09-07T05:21:51.960Z,8.50
2022-09-07T05:24:39.936Z,8.56
2022-09-07T05:27:27.894Z,8.75
2022-09-07T05:36:33.575Z,9.06
2022-09-07T05:39:21.551Z,9.25
2022-09-07T05:42:09.440Z,9.44
2022-09-07T05:44:58.066Z,9.63
2022-09-07T05:47:51.008Z,9.88
2022-09-07T05:50:39.551Z,10.13
2022-09-07T05:53:28.150Z,10.38
2022-09-07T05:56:16.436Z,10.63
2022-09-07T05:59:04.217Z,10.75
2022-09-07T06:01:52.234Z,10.94
2022-09-07T06:04:40.251Z,11.13
2022-09-07T06:07:28.403Z,11.19
2022-09-07T06:13:27.063Z,11.75
2022-09-07T06:16:17.090Z,12.13
2022-09-07T06:19:07.667Z,12.63
2022-09-07T06:21:55.377Z,13.31
2022-09-07T06:24:43.339Z,16.31
2022-09-07T06:27:32.173Z,21.63
2022-09-07T06:30:21.380Z,24.50
2022-09-07T06:33:09.485Z,26.44
2022-09-07T06:36:05.290Z,26.63
2022-09-07T06:38:58.990Z,27.50
2022-09-07T06:42:02.108Z,27.88
2022-09-07T06:44:50.894Z,28.63
2022-09-07T06:47:39.210Z,28.38
2022-09-07T06:50:28.094Z,29.06
2022-09-07T06:56:24.852Z,29.38
2022-09-07T06:59:12.854Z,30.63
2022-09-07T07:02:01.122Z,31.13
2022-09-07T07:04:50.501Z,30.63
2022-09-07T07:07:38.582Z,31.50
2022-09-07T07:10:26.549Z,31.56
2022-09-07T07:16:13.346Z,32.13
2022-09-07T07:19:01.128Z,32.44
2022-09-07T07:22:10.706Z,33.13
2022-09-07T07:24:56.791Z,33.13
2022-09-07T07:27:48.853Z,33.75
2022-09-07T07:30:36.903Z,34.94
2022-09-07T07:33:28.893Z,35.38
2022-09-07T07:36:26.866Z,35.94
2022-09-07T07:42:22.615Z,34.44
2022-09-07T07:51:16.253Z,34.63
2022-09-07T07:54:04.255Z,33.94
2022-09-07T07:56:52.611Z,34.63
2022-09-07T07:59:40.382Z,35.81
2022-09-07T08:02:28.150Z,35.69
2022-09-07T08:05:17.334Z,36.13
2022-09-07T08:08:04.979Z,35.94
2022-09-07T08:10:53.122Z,37.00
2022-09-07T08:13:42.780Z,37.69
2022-09-07T08:16:30.686Z,38.31
2022-09-07T08:19:19.255Z,38.88
2022-09-07T08:22:08.737Z,38.25
2022-09-07T08:24:56.742Z,36.81
2022-09-07T08:27:44.540Z,37.88
2022-09-07T08:30:32.414Z,39.38
2022-09-07T08:33:21.257Z,39.94
2022-09-07T08:36:19.740Z,41.19
2022-09-07T08:39:08.159Z,41.69
2022-09-07T08:41:58.696Z,43.50
2022-09-07T08:45:00.882Z,44.44
2022-09-07T08:47:53.003Z,46.88
2022-09-07T08:51:01.014Z,47.44
2022-09-07T08:53:50.816Z,47.44
2022-09-07T08:57:20.588Z,46.94
2022-09-07T09:00:14.374Z,46.94
2022-09-07T09:06:47.556Z,47.56
2022-09-07T09:09:38.512Z,48.19
2022-09-07T09:13:03.534Z,50.06
2022-09-07T09:16:20.286Z,51.25
2022-09-07T09:19:51.378Z,51.75
2022-09-07T09:22:39.779Z,52.50
2022-09-07T09:25:35.398Z,52.38
2022-09-07T09:28:25.530Z,52.19
2022-09-07T09:31:24.013Z,52.63
2022-09-07T09:34:14.999Z,53.69
2022-09-07T09:37:02.674Z,51.81
2022-09-07T09:40:02.227Z,50.63
2022-09-07T09:43:03.553Z,51.56
2022-09-07T09:46:13.322Z,51.38
2022-09-07T09:49:06.052Z,51.25
2022-09-07T10:05:20.344Z,52.44
2022-09-07T10:08:30.576Z,52.06
2022-09-07T10:11:18.799Z,52.50
2022-09-07T10:14:27.982Z,53.56
2022-09-07T10:17:31.635Z,52.75
2022-09-07T10:20:20.263Z,52.81
2022-09-07T10:23:23.491Z,53.19
2022-09-07T10:26:34.448Z,53.69
2022-09-07T10:29:25.849Z,51.31
2022-09-07T10:32:48.727Z,52.81
2022-09-07T10:36:04.049Z,53.13
2022-09-07T10:39:07.065Z,53.06
2022-09-07T10:42:39.514Z,53.31
2022-09-07T10:53:39.648Z,47.25
2022-09-07T10:56:33.431Z,46.25
2022-09-07T11:03:28.945Z,49.94
2022-09-07T11:06:53.034Z,51.13
2022-09-07T11:10:19.373Z,52.06
2022-09-07T11:13:11.625Z,50.81
2022-09-07T11:16:06.346Z,51.94
2022-09-07T11:22:21.545Z,49.94
2022-09-07T11:25:29.560Z,49.06
2022-09-07T11:28:36.970Z,48.44
2022-09-07T11:32:09.955Z,49.13
2022-09-07T11:35:22.242Z,48.81
2022-09-07T11:38:25.805Z,47.00
2022-09-07T11:41:28.130Z,46.25
2022-09-07T11:44:29.409Z,43.69
2022-09-07T11:47:36.400Z,43.25
2022-09-07T11:50:24.740Z,43.00
2022-09-07T11:53:24.505Z,42.56
2022-09-07T11:56:26.285Z,40.06
2022-09-07T11:59:43.130Z,39.19
2022-09-07T12:02:58.663Z,35.81
2022-09-07T12:06:14.599Z,30.81
2022-09-07T12:09:20.293Z,28.25
2022-09-07T12:12:28.194Z,26.63
2022-09-07T12:16:20.237Z,25.31
2022-09-07T12:19:24.803Z,24.44
2022-09-07T12:22:23.299Z,23.94
2022-09-07T12:25:18.766Z,23.69
2022-09-07T12:28:21.699Z,23.50
2022-09-07T12:31:12.794Z,23.25
2022-09-07T12:34:36.107Z,23.44
2022-09-07T12:37:27.403Z,23.19
2022-09-07T12:40:30.359Z,22.75
2022-09-07T12:43:18.463Z,22.31
2022-09-07T12:46:19.989Z,22.25
2022-09-07T12:49:14.192Z,22.19
2022-09-07T12:52:16.207Z,22.25
2022-09-07T12:59:11.927Z,22.06
2022-09-07T13:02:24.345Z,21.94
2022-09-07T13:06:09.769Z,22.00
2022-09-07T13:09:14.435Z,22.13
2022-09-07T13:15:49.218Z,21.69
2022-09-07T13:18:37.692Z,21.63
2022-09-07T13:21:40.949Z,21.38
2022-09-07T13:24:48.115Z,21.19
2022-09-07T13:27:53.343Z,21.00
2022-09-07T13:31:24.494Z,20.88
2022-09-07T13:34:34.171Z,21.25
2022-09-07T13:37:25.494Z,21.63
2022-09-07T13:40:23.364Z,21.50
2022-09-07T13:43:25.935Z,21.00
2022-09-07T13:46:31.874Z,21.19
2022-09-07T13:49:38.014Z,21.69
2022-09-07T13:53:25.292Z,22.00
2022-09-07T13:56:50.042Z,22.06
2022-09-07T13:59:37.705Z,21.81
2022-09-07T14:02:36.393Z,21.69
2022-09-07T14:05:24.665Z,21.44
2022-09-07T14:08:28.142Z,20.88
2022-09-07T14:11:51.079Z,20.63
2022-09-07T14:14:38.648Z,20.38
2022-09-07T14:17:28.268Z,20.19
2022-09-07T14:20:18.447Z,20.00
2022-09-07T14:23:19.042Z,19.88
2022-09-07T14:26:21.272Z,19.63
2022-09-07T14:29:26.829Z,20.00
2022-09-07T14:32:20.577Z,20.13
2022-09-07T14:35:14.598Z,20.44
2022-09-07T14:41:40.820Z,20.69
2022-09-07T14:44:35.650Z,20.31
2022-09-07T14:47:34.048Z,20.06
2022-09-07T14:50:25.755Z,19.88
2022-09-07T14:53:35.617Z,19.38
2022-09-07T14:56:40.363Z,19.31
2022-09-07T14:59:38.900Z,19.50
2022-09-07T15:02:38.242Z,19.81
2022-09-07T15:05:28.640Z,20.00
2022-09-07T15:08:47.382Z,19.63
2022-09-07T15:11:38.625Z,19.56
2022-09-07T15:14:26.606Z,19.19
2022-09-07T15:17:43.373Z,18.75
2022-09-07T15:20:43.267Z,18.50
2022-09-07T15:23:39.013Z,18.50
2022-09-07T15:29:50.647Z,18.38
2022-09-07T15:33:04.310Z,18.31
2022-09-07T15:35:58.762Z,18.44
2022-09-07T15:39:04.335Z,18.69
2022-09-07T15:41:53.764Z,18.69
2022-09-07T15:44:47.709Z,18.38
2022-09-07T15:47:50.783Z,18.13
2022-09-07T15:50:42.059Z,18.00
2022-09-07T15:57:48.280Z,17.63
2022-09-07T15:59:55.668Z,17.44
2022-09-07T16:05:53.149Z,16.94
2022-09-07T16:08:41.926Z,16.69
2022-09-07T16:11:30.062Z,16.44
2022-09-07T16:14:18.194Z,16.25
2022-09-07T16:20:17.067Z,15.88
2022-09-07T16:23:43.667Z,15.75
2022-09-07T16:26:32.599Z,15.69
2022-09-07T16:29:25.042Z,15.50
2022-09-07T16:35:21.936Z,15.19
2022-09-07T16:41:31.168Z,14.88
2022-09-07T16:49:00.144Z,14.56
2022-09-07T16:51:50.325Z,14.50
2022-09-07T16:55:04.482Z,14.38
2022-09-07T17:01:02.318Z,14.19
2022-09-07T17:04:11.829Z,14.06
2022-09-07T17:06:59.915Z,14.00
2022-09-07T17:09:55.679Z,13.88
2022-09-07T17:13:00.315Z,13.75
2022-09-07T17:15:54.735Z,13.63
2022-09-07T17:21:57.586Z,13.50
2022-09-07T17:24:48.418Z,13.44
2022-09-07T17:27:41.156Z,13.38
2022-09-07T17:30:28.918Z,13.31
2022-09-07T17:33:16.864Z,13.25
2022-09-07T17:36:12.098Z,13.19
2022-09-07T17:39:18.488Z,13.13
2022-09-07T17:42:13.657Z,13.06
2022-09-07T17:45:02.498Z,13.00
2022-09-07T17:47:50.605Z,12.88
2022-09-07T17:50:38.789Z,12.81
2022-09-07T17:53:26.727Z,12.75
2022-09-07T17:56:16.881Z,12.75
2022-09-07T18:02:31.839Z,12.56
2022-09-07T18:05:31.513Z,12.50
2022-09-07T18:08:51.128Z,12.44
2022-09-07T18:12:11.324Z,12.44
2022-09-07T18:15:32.441Z,12.38
2022-09-07T18:18:33.660Z,12.31
2022-09-07T18:21:31.818Z,12.31
2022-09-07T18:24:36.831Z,12.25
2022-09-07T18:27:27.664Z,12.19
2022-09-07T18:30:15.824Z,12.19
2022-09-07T18:33:09.604Z,12.19
2022-09-07T18:35:58.221Z,12.19
2022-09-07T18:38:46.870Z,12.06
2022-09-07T18:41:37.679Z,12.06
2022-09-07T18:47:42.111Z,11.88
2022-09-07T18:50:29.811Z,11.81
2022-09-07T18:53:17.770Z,11.75
2022-09-07T18:56:18.941Z,11.69
2022-09-07T18:59:09.661Z,11.69
2022-09-07T19:02:03.624Z,11.63
2022-09-07T19:08:03.597Z,11.56
2022-09-07T19:10:53.284Z,11.50
2022-09-07T19:13:41.489Z,11.44
2022-09-07T19:16:32.331Z,11.44
2022-09-07T19:19:23.127Z,11.38
2022-09-07T19:22:11.271Z,11.38
2022-09-07T19:24:59.228Z,11.31
2022-09-07T19:27:47.054Z,11.31
2022-09-07T19:30:36.048Z,11.25
2022-09-07T19:33:24.034Z,11.25
2022-09-07T19:36:11.940Z,11.19
2022-09-07T19:39:00.941Z,11.13
2022-09-07T19:41:48.862Z,11.06
2022-09-07T19:44:36.989Z,11.06
2022-09-07T19:47:25.111Z,11.00
2022-09-07T19:50:13.207Z,11.06
2022-09-07T19:53:01.931Z,11.00
2022-09-07T19:55:50.920Z,10.94
2022-09-07T19:58:43.551Z,10.88
2022-09-07T20:01:32.179Z,10.81
2022-09-07T20:04:24.152Z,10.81
2022-09-07T20:07:13.587Z,10.81
2022-09-07T20:10:01.664Z,10.75
2022-09-07T20:12:49.512Z,10.69
2022-09-07T20:15:42.897Z,10.63
2022-09-07T20:18:31.159Z,10.63
2022-09-07T20:21:22.203Z,10.56
2022-09-07T20:24:12.776Z,10.50
2022-09-07T20:27:02.856Z,10.44
2022-09-07T20:29:51.797Z,10.38
2022-09-07T20:32:39.822Z,10.31
2022-09-07T20:35:28.004Z,10.31
2022-09-07T20:38:18.295Z,10.25
2022-09-07T20:41:06.985Z,10.25
2022-09-07T20:43:56.822Z,10.25
2022-09-07T20:46:44.649Z,10.19
2022-09-07T20:49:32.855Z,10.19
2022-09-07T20:52:21.168Z,10.19
2022-09-07T20:55:09.856Z,10.19
2022-09-07T20:57:57.334Z,10.13
2022-09-07T21:00:51.811Z,10.13
2022-09-07T21:03:48.532Z,10.06
2022-09-07T21:06:39.748Z,10.06
2022-09-07T21:09:27.628Z,10.06
2022-09-07T21:12:16.508Z,10.06
2022-09-07T21:15:04.925Z,10.06
2022-09-07T21:17:53.145Z,10.06
2022-09-07T21:20:40.998Z,10.06
2022-09-07T21:23:34.685Z,10.06
2022-09-07T21:26:23.851Z,10.00
2022-09-07T21:29:20.467Z,10.00
2022-09-07T21:32:08.579Z,9.94
2022-09-07T21:34:56.569Z,9.94
2022-09-07T21:37:47.532Z,9.88
2022-09-07T21:40:41.407Z,9.88
2022-09-07T21:43:29.357Z,9.88
2022-09-07T21:47:24.760Z,9.81
2022-09-07T21:49:51.294Z,9.88
2022-09-07T21:52:59.267Z,9.88
2022-09-07T21:56:06.384Z,9.88
2022-09-07T21:58:56.092Z,9.81
2022-09-07T22:01:44.373Z,9.94
2022-09-07T22:04:32.367Z,9.94
2022-09-07T22:07:20.238Z,10.00
2022-09-07T22:10:09.786Z,10.06
2022-09-07T22:12:57.532Z,10.19
2022-09-07T22:15:45.733Z,10.19
2022-09-07T22:18:34.766Z,10.25
2022-09-07T22:21:26.584Z,10.25
2022-09-07T22:24:15.426Z,10.25
2022-09-07T22:27:03.150Z,10.25
2022-09-07T22:29:51.046Z,10.31
2022-09-07T22:32:38.894Z,10.31
2022-09-07T22:35:27.324Z,10.31
2022-09-07T22:38:14.976Z,10.31
2022-09-07T22:41:19.602Z,10.31
2022-09-07T22:44:11.361Z,10.25
2022-09-07T22:46:59.135Z,10.31
2022-09-07T22:49:47.121Z,10.31
2022-09-07T22:52:36.002Z,10.31
2022-09-07T22:55:23.551Z,10.31
2022-09-07T22:58:11.568Z,10.25
2022-09-07T23:01:00.712Z,10.25
2022-09-07T23:03:49.392Z,10.19
2022-09-07T23:06:40.587Z,10.19
2022-09-07T23:09:28.446Z,10.19
2022-09-07T23:12:16.529Z,10.13
2022-09-07T23:15:05.210Z,10.19
2022-09-07T23:17:52.828Z,10.19
2022-09-07T23:20:41.350Z,10.25
2022-09-07T23:23:29.823Z,10.25
2022-09-07T23:26:17.345Z,10.19
2022-09-07T23:29:06.112Z,10.19
2022-09-07T23:31:53.971Z,10.13
2022-09-07T23:34:41.727Z,10.13
2022-09-07T23:37:29.357Z,10.13
2022-09-07T23:40:17.179Z,10.13
2022-09-07T23:43:04.708Z,10.06
2022-09-07T23:45:52.434Z,10.06
2022-09-07T23:48:40.672Z,10.00
2022-09-07T23:51:28.705Z,9.94
2022-09-07T23:54:16.200Z,9.94
2022-09-07T23:57:03.573Z,9.88
2022-09-07T23:59:51.440Z,9.81
